sensor_id;sensor_type;location;lat;lon;timestamp;P1;durP1;ratioP1;P2;durP2;ratioP2
5898;SDS011;2975;50.956;6.962;2022-12-20T00:01:10;2.10;;;1.40;;
5898;SDS011;2975;50.956;6.962;2022-12-20T00:03:41;1.93;;;1.53;;
5898;SDS011;2975;50.956;6.962;2022-12-20T00:06:08;2.17;;;1.53;;
5898;SDS011;2975;50.956;6.962;2022-12-20T00:08:35;2.10;;;1.90;;
5898;SDS011;2975;50.956;6.962;2022-12-20T00:11:02;1.83;;;1.60;;
5898;SDS011;2975;50.956;6.962;2022-12-20T00:13:30;2.03;;;1.33;;
5898;SDS011;2975;50.956;6.962;2022-12-20T00:16:15;1.57;;;1.47;;
5898;SDS011;2975;50.956;6.962;2022-12-20T00:18:43;5.87;;;1.80;;
5898;SDS011;2975;50.956;6.962;2022-12-20T00:21:10;2.60;;;1.40;;
5898;SDS011;2975;50.956;6.962;2022-12-20T00:23:37;3.03;;;1.70;;
5898;SDS011;2975;50.956;6.962;2022-12-20T00:28:33;2.20;;;1.30;;
5898;SDS011;2975;50.956;6.962;2022-12-20T00:31:00;2.60;;;1.40;;
5898;SDS011;2975;50.956;6.962;2022-12-20T00:33:27;1.60;;;1.50;;
5898;SDS011;2975;50.956;6.962;2022-12-20T00:35:53;2.30;;;1.60;;
5898;SDS011;2975;50.956;6.962;2022-12-20T00:38:20;4.40;;;1.70;;
5898;SDS011;2975;50.956;6.962;2022-12-20T00:40:47;3.80;;;1.90;;
5898;SDS011;2975;50.956;6.962;2022-12-20T00:43:12;1.93;;;1.70;;
5898;SDS011;2975;50.956;6.962;2022-12-20T00:45:38;2.20;;;1.73;;
5898;SDS011;2975;50.956;6.962;2022-12-20T00:48:03;5.70;;;1.80;;
5898;SDS011;2975;50.956;6.962;2022-12-20T00:50:29;2.93;;;2.40;;
5898;SDS011;2975;50.956;6.962;2022-12-20T00:52:55;3.17;;;2.03;;
5898;SDS011;2975;50.956;6.962;2022-12-20T00:55:21;3.93;;;2.10;;
5898;SDS011;2975;50.956;6.962;2022-12-20T00:57:46;3.20;;;2.20;;
5898;SDS011;2975;50.956;6.962;2022-12-20T01:00:12;4.53;;;2.03;;
5898;SDS011;2975;50.956;6.962;2022-12-20T01:02:38;3.43;;;2.40;;
5898;SDS011;2975;50.956;6.962;2022-12-20T01:05:03;4.10;;;2.90;;
5898;SDS011;2975;50.956;6.962;2022-12-20T01:07:30;4.63;;;2.67;;
5898;SDS011;2975;50.956;6.962;2022-12-20T01:09:56;3.13;;;2.27;;
5898;SDS011;2975;50.956;6.962;2022-12-20T01:12:22;4.23;;;2.40;;
5898;SDS011;2975;50.956;6.962;2022-12-20T01:14:48;2.63;;;2.20;;
5898;SDS011;2975;50.956;6.962;2022-12-20T01:17:14;2.57;;;2.20;;
5898;SDS011;2975;50.956;6.962;2022-12-20T01:19:39;2.50;;;2.30;;
5898;SDS011;2975;50.956;6.962;2022-12-20T01:22:05;5.03;;;2.63;;
5898;SDS011;2975;50.956;6.962;2022-12-20T01:24:30;3.83;;;2.33;;
5898;SDS011;2975;50.956;6.962;2022-12-20T01:26:56;3.70;;;2.67;;
5898;SDS011;2975;50.956;6.962;2022-12-20T01:29:21;6.03;;;2.60;;
5898;SDS011;2975;50.956;6.962;2022-12-20T01:31:47;3.10;;;2.43;;
5898;SDS011;2975;50.956;6.962;2022-12-20T01:34:13;2.47;;;2.07;;
5898;SDS011;2975;50.956;6.962;2022-12-20T01:36:39;2.73;;;2.33;;
5898;SDS011;2975;50.956;6.962;2022-12-20T01:39:06;5.77;;;2.23;;
5898;SDS011;2975;50.956;6.962;2022-12-20T01:41:33;3.83;;;2.53;;
5898;SDS011;2975;50.956;6.962;2022-12-20T01:44:02;3.30;;;2.63;;
5898;SDS011;2975;50.956;6.962;2022-12-20T01:46:30;4.40;;;2.10;;
5898;SDS011;2975;50.956;6.962;2022-12-20T01:51:29;5.57;;;2.17;;
5898;SDS011;2975;50.956;6.962;2022-12-20T01:54:00;2.83;;;1.87;;
5898;SDS011;2975;50.956;6.962;2022-12-20T01:56:30;2.80;;;2.10;;
5898;SDS011;2975;50.956;6.962;2022-12-20T01:58:56;3.83;;;1.83;;
5898;SDS011;2975;50.956;6.962;2022-12-20T02:01:23;4.10;;;2.30;;
5898;SDS011;2975;50.956;6.962;2022-12-20T02:03:49;3.13;;;1.60;;
5898;SDS011;2975;50.956;6.962;2022-12-20T02:06:17;3.27;;;2.37;;
5898;SDS011;2975;50.956;6.962;2022-12-20T02:08:44;5.00;;;1.80;;
5898;SDS011;2975;50.956;6.962;2022-12-20T02:17:33;2.37;;;2.00;;
5898;SDS011;2975;50.956;6.962;2022-12-20T02:25:08;4.20;;;1.93;;
5898;SDS011;2975;50.956;6.962;2022-12-20T02:30:41;2.60;;;1.63;;
5898;SDS011;2975;50.956;6.962;2022-12-20T02:33:10;3.30;;;1.93;;
5898;SDS011;2975;50.956;6.962;2022-12-20T02:35:38;2.77;;;1.97;;
5898;SDS011;2975;50.956;6.962;2022-12-20T02:40:52;3.50;;;2.40;;
5898;SDS011;2975;50.956;6.962;2022-12-20T02:43:25;2.40;;;1.70;;
5898;SDS011;2975;50.956;6.962;2022-12-20T02:46:11;5.33;;;2.67;;
5898;SDS011;2975;50.956;6.962;2022-12-20T02:48:38;3.77;;;2.00;;
5898;SDS011;2975;50.956;6.962;2022-12-20T02:51:05;2.60;;;2.10;;
5898;SDS011;2975;50.956;6.962;2022-12-20T02:53:32;3.80;;;2.73;;
5898;SDS011;2975;50.956;6.962;2022-12-20T02:56:10;4.33;;;2.33;;
5898;SDS011;2975;50.956;6.962;2022-12-20T02:59:02;4.47;;;2.93;;
5898;SDS011;2975;50.956;6.962;2022-12-20T03:01:35;2.80;;;2.50;;
5898;SDS011;2975;50.956;6.962;2022-12-20T03:04:04;3.23;;;2.40;;
5898;SDS011;2975;50.956;6.962;2022-12-20T03:06:30;3.83;;;2.60;;
5898;SDS011;2975;50.956;6.962;2022-12-20T03:08:56;4.73;;;2.50;;
5898;SDS011;2975;50.956;6.962;2022-12-20T03:11:21;3.83;;;2.70;;
5898;SDS011;2975;50.956;6.962;2022-12-20T03:13:47;3.50;;;2.30;;
5898;SDS011;2975;50.956;6.962;2022-12-20T03:16:13;2.90;;;2.50;;
5898;SDS011;2975;50.956;6.962;2022-12-20T03:18:38;4.33;;;3.50;;
5898;SDS011;2975;50.956;6.962;2022-12-20T03:21:04;4.77;;;2.40;;
5898;SDS011;2975;50.956;6.962;2022-12-20T03:23:30;3.97;;;2.67;;
5898;SDS011;2975;50.956;6.962;2022-12-20T03:25:56;4.97;;;2.60;;
5898;SDS011;2975;50.956;6.962;2022-12-20T03:28:22;4.53;;;2.33;;
5898;SDS011;2975;50.956;6.962;2022-12-20T03:30:47;5.33;;;2.80;;
5898;SDS011;2975;50.956;6.962;2022-12-20T03:33:13;3.30;;;2.70;;
5898;SDS011;2975;50.956;6.962;2022-12-20T03:35:39;4.00;;;2.73;;
5898;SDS011;2975;50.956;6.962;2022-12-20T03:38:04;5.70;;;2.30;;
5898;SDS011;2975;50.956;6.962;2022-12-20T03:40:30;4.13;;;2.80;;
5898;SDS011;2975;50.956;6.962;2022-12-20T03:42:55;2.80;;;2.33;;
5898;SDS011;2975;50.956;6.962;2022-12-20T03:45:21;4.27;;;2.47;;
5898;SDS011;2975;50.956;6.962;2022-12-20T03:47:47;4.57;;;2.47;;
5898;SDS011;2975;50.956;6.962;2022-12-20T03:50:13;2.83;;;2.40;;
5898;SDS011;2975;50.956;6.962;2022-12-20T03:52:39;4.47;;;2.93;;
5898;SDS011;2975;50.956;6.962;2022-12-20T03:55:05;3.40;;;2.60;;
5898;SDS011;2975;50.956;6.962;2022-12-20T03:57:31;4.53;;;2.60;;
5898;SDS011;2975;50.956;6.962;2022-12-20T03:59:56;8.53;;;2.87;;
5898;SDS011;2975;50.956;6.962;2022-12-20T04:02:22;4.63;;;2.90;;
5898;SDS011;2975;50.956;6.962;2022-12-20T04:04:48;5.80;;;2.80;;
5898;SDS011;2975;50.956;6.962;2022-12-20T04:07:14;5.20;;;2.90;;
5898;SDS011;2975;50.956;6.962;2022-12-20T04:09:40;5.93;;;2.93;;
5898;SDS011;2975;50.956;6.962;2022-12-20T04:12:06;3.87;;;2.60;;
5898;SDS011;2975;50.956;6.962;2022-12-20T04:14:31;4.07;;;2.60;;
5898;SDS011;2975;50.956;6.962;2022-12-20T04:16:57;6.07;;;2.73;;
5898;SDS011;2975;50.956;6.962;2022-12-20T04:19:23;8.07;;;3.20;;
5898;SDS011;2975;50.956;6.962;2022-12-20T04:21:48;4.63;;;2.90;;
5898;SDS011;2975;50.956;6.962;2022-12-20T04:24:14;4.37;;;2.80;;
5898;SDS011;2975;50.956;6.962;2022-12-20T04:26:40;3.97;;;2.60;;
5898;SDS011;2975;50.956;6.962;2022-12-20T04:29:06;5.10;;;2.60;;
5898;SDS011;2975;50.956;6.962;2022-12-20T04:31:31;4.97;;;3.10;;
5898;SDS011;2975;50.956;6.962;2022-12-20T04:33:57;8.33;;;3.30;;
5898;SDS011;2975;50.956;6.962;2022-12-20T04:36:23;6.37;;;3.07;;
5898;SDS011;2975;50.956;6.962;2022-12-20T04:38:48;5.87;;;3.40;;
5898;SDS011;2975;50.956;6.962;2022-12-20T04:41:14;5.63;;;3.03;;
5898;SDS011;2975;50.956;6.962;2022-12-20T04:43:56;8.23;;;2.67;;
5898;SDS011;2975;50.956;6.962;2022-12-20T04:46:23;7.60;;;3.00;;
5898;SDS011;2975;50.956;6.962;2022-12-20T04:48:49;5.97;;;2.93;;
5898;SDS011;2975;50.956;6.962;2022-12-20T04:51:15;4.87;;;2.47;;
5898;SDS011;2975;50.956;6.962;2022-12-20T04:53:41;2.50;;;2.30;;
5898;SDS011;2975;50.956;6.962;2022-12-20T04:56:23;4.43;;;2.43;;
5898;SDS011;2975;50.956;6.962;2022-12-20T04:58:52;3.23;;;2.80;;
5898;SDS011;2975;50.956;6.962;2022-12-20T05:01:19;5.63;;;2.90;;
5898;SDS011;2975;50.956;6.962;2022-12-20T05:03:46;4.30;;;3.07;;
5898;SDS011;2975;50.956;6.962;2022-12-20T05:06:12;4.17;;;3.00;;
5898;SDS011;2975;50.956;6.962;2022-12-20T05:08:37;4.70;;;2.90;;
5898;SDS011;2975;50.956;6.962;2022-12-20T05:11:04;8.20;;;2.80;;
5898;SDS011;2975;50.956;6.962;2022-12-20T05:13:30;5.80;;;2.70;;
5898;SDS011;2975;50.956;6.962;2022-12-20T05:15:56;11.10;;;5.30;;
5898;SDS011;2975;50.956;6.962;2022-12-20T05:18:22;4.47;;;3.43;;
5898;SDS011;2975;50.956;6.962;2022-12-20T05:20:48;5.73;;;3.17;;
5898;SDS011;2975;50.956;6.962;2022-12-20T05:23:33;4.80;;;2.97;;
5898;SDS011;2975;50.956;6.962;2022-12-20T05:26:18;6.00;;;2.90;;
5898;SDS011;2975;50.956;6.962;2022-12-20T05:28:43;6.03;;;3.13;;
5898;SDS011;2975;50.956;6.962;2022-12-20T05:31:09;5.80;;;2.87;;
5898;SDS011;2975;50.956;6.962;2022-12-20T05:33:35;4.10;;;2.43;;
5898;SDS011;2975;50.956;6.962;2022-12-20T05:36:00;5.37;;;3.10;;
5898;SDS011;2975;50.956;6.962;2022-12-20T05:38:26;12.00;;;3.90;;
5898;SDS011;2975;50.956;6.962;2022-12-20T05:40:52;4.40;;;2.97;;
5898;SDS011;2975;50.956;6.962;2022-12-20T05:43:18;5.90;;;2.83;;
5898;SDS011;2975;50.956;6.962;2022-12-20T05:45:48;3.97;;;3.00;;
5898;SDS011;2975;50.956;6.962;2022-12-20T05:48:15;5.77;;;2.97;;
5898;SDS011;2975;50.956;6.962;2022-12-20T05:50:41;4.80;;;2.83;;
5898;SDS011;2975;50.956;6.962;2022-12-20T05:53:11;4.33;;;2.80;;
5898;SDS011;2975;50.956;6.962;2022-12-20T05:55:40;4.53;;;3.07;;
5898;SDS011;2975;50.956;6.962;2022-12-20T05:58:08;6.53;;;3.40;;
5898;SDS011;2975;50.956;6.962;2022-12-20T06:00:37;3.30;;;3.00;;
5898;SDS011;2975;50.956;6.962;2022-12-20T06:03:04;4.40;;;2.57;;
5898;SDS011;2975;50.956;6.962;2022-12-20T06:05:30;4.30;;;2.60;;
5898;SDS011;2975;50.956;6.962;2022-12-20T06:07:56;5.30;;;3.17;;
5898;SDS011;2975;50.956;6.962;2022-12-20T06:10:22;4.30;;;3.40;;
5898;SDS011;2975;50.956;6.962;2022-12-20T06:12:48;5.50;;;3.10;;
5898;SDS011;2975;50.956;6.962;2022-12-20T06:15:14;6.43;;;2.93;;
5898;SDS011;2975;50.956;6.962;2022-12-20T06:17:40;3.77;;;3.20;;
5898;SDS011;2975;50.956;6.962;2022-12-20T06:20:05;5.53;;;3.00;;
5898;SDS011;2975;50.956;6.962;2022-12-20T06:22:32;3.90;;;2.93;;
5898;SDS011;2975;50.956;6.962;2022-12-20T06:24:57;5.13;;;2.90;;
5898;SDS011;2975;50.956;6.962;2022-12-20T06:27:23;6.13;;;3.00;;
5898;SDS011;2975;50.956;6.962;2022-12-20T06:29:49;5.70;;;2.63;;
5898;SDS011;2975;50.956;6.962;2022-12-20T06:32:18;6.43;;;3.00;;
5898;SDS011;2975;50.956;6.962;2022-12-20T06:34:44;3.13;;;2.57;;
5898;SDS011;2975;50.956;6.962;2022-12-20T06:37:10;4.60;;;2.90;;
5898;SDS011;2975;50.956;6.962;2022-12-20T06:39:36;3.67;;;2.90;;
5898;SDS011;2975;50.956;6.962;2022-12-20T06:42:01;5.10;;;3.03;;
5898;SDS011;2975;50.956;6.962;2022-12-20T06:44:27;3.07;;;2.53;;
5898;SDS011;2975;50.956;6.962;2022-12-20T06:46:53;6.23;;;2.80;;
5898;SDS011;2975;50.956;6.962;2022-12-20T06:49:18;4.90;;;2.90;;
5898;SDS011;2975;50.956;6.962;2022-12-20T06:51:44;3.20;;;2.50;;
5898;SDS011;2975;50.956;6.962;2022-12-20T06:54:09;5.30;;;2.60;;
5898;SDS011;2975;50.956;6.962;2022-12-20T06:56:35;6.30;;;3.03;;
5898;SDS011;2975;50.956;6.962;2022-12-20T06:59:01;6.03;;;2.77;;
5898;SDS011;2975;50.956;6.962;2022-12-20T07:01:26;4.67;;;2.57;;
5898;SDS011;2975;50.956;6.962;2022-12-20T07:03:52;4.40;;;2.60;;
5898;SDS011;2975;50.956;6.962;2022-12-20T07:06:17;4.33;;;2.80;;
5898;SDS011;2975;50.956;6.962;2022-12-20T07:08:43;5.53;;;2.97;;
5898;SDS011;2975;50.956;6.962;2022-12-20T07:11:08;6.20;;;3.07;;
5898;SDS011;2975;50.956;6.962;2022-12-20T07:13:34;5.13;;;3.00;;
5898;SDS011;2975;50.956;6.962;2022-12-20T07:16:00;5.10;;;2.63;;
5898;SDS011;2975;50.956;6.962;2022-12-20T07:18:27;5.60;;;3.00;;
5898;SDS011;2975;50.956;6.962;2022-12-20T07:20:53;4.77;;;2.57;;
5898;SDS011;2975;50.956;6.962;2022-12-20T07:23:23;2.80;;;2.20;;
5898;SDS011;2975;50.956;6.962;2022-12-20T07:25:55;4.13;;;2.90;;
5898;SDS011;2975;50.956;6.962;2022-12-20T07:28:22;4.07;;;2.87;;
5898;SDS011;2975;50.956;6.962;2022-12-20T07:30:48;5.40;;;3.47;;
5898;SDS011;2975;50.956;6.962;2022-12-20T07:33:13;6.20;;;2.47;;
5898;SDS011;2975;50.956;6.962;2022-12-20T07:35:39;4.03;;;2.67;;
5898;SDS011;2975;50.956;6.962;2022-12-20T07:38:05;4.53;;;2.83;;
5898;SDS011;2975;50.956;6.962;2022-12-20T07:40:31;4.43;;;2.67;;
5898;SDS011;2975;50.956;6.962;2022-12-20T07:42:57;5.83;;;3.13;;
5898;SDS011;2975;50.956;6.962;2022-12-20T07:45:22;3.50;;;2.60;;
5898;SDS011;2975;50.956;6.962;2022-12-20T07:47:48;6.60;;;2.63;;
5898;SDS011;2975;50.956;6.962;2022-12-20T07:50:13;3.90;;;2.47;;
5898;SDS011;2975;50.956;6.962;2022-12-20T07:52:40;4.43;;;2.80;;
5898;SDS011;2975;50.956;6.962;2022-12-20T07:55:09;6.03;;;2.90;;
5898;SDS011;2975;50.956;6.962;2022-12-20T07:57:43;5.20;;;2.63;;
5898;SDS011;2975;50.956;6.962;2022-12-20T08:00:14;5.60;;;2.80;;
5898;SDS011;2975;50.956;6.962;2022-12-20T08:02:52;4.23;;;2.33;;
5898;SDS011;2975;50.956;6.962;2022-12-20T08:05:26;4.33;;;2.80;;
5898;SDS011;2975;50.956;6.962;2022-12-20T08:07:53;7.47;;;3.70;;
5898;SDS011;2975;50.956;6.962;2022-12-20T08:10:22;6.80;;;3.00;;
5898;SDS011;2975;50.956;6.962;2022-12-20T08:12:48;4.77;;;2.60;;
5898;SDS011;2975;50.956;6.962;2022-12-20T08:15:14;10.83;;;5.47;;
5898;SDS011;2975;50.956;6.962;2022-12-20T08:17:40;6.27;;;4.10;;
5898;SDS011;2975;50.956;6.962;2022-12-20T08:20:06;6.10;;;3.73;;
5898;SDS011;2975;50.956;6.962;2022-12-20T08:22:32;4.60;;;3.43;;
5898;SDS011;2975;50.956;6.962;2022-12-20T08:24:58;5.87;;;3.20;;
5898;SDS011;2975;50.956;6.962;2022-12-20T08:27:24;3.37;;;2.47;;
5898;SDS011;2975;50.956;6.962;2022-12-20T08:29:50;5.83;;;2.57;;
5898;SDS011;2975;50.956;6.962;2022-12-20T08:32:15;3.83;;;2.87;;
5898;SDS011;2975;50.956;6.962;2022-12-20T08:34:41;5.37;;;2.77;;
5898;SDS011;2975;50.956;6.962;2022-12-20T08:37:06;3.80;;;2.47;;
5898;SDS011;2975;50.956;6.962;2022-12-20T08:39:32;6.03;;;2.90;;
5898;SDS011;2975;50.956;6.962;2022-12-20T08:41:57;4.20;;;2.57;;
5898;SDS011;2975;50.956;6.962;2022-12-20T08:44:23;7.53;;;2.77;;
5898;SDS011;2975;50.956;6.962;2022-12-20T08:46:49;4.97;;;3.13;;
5898;SDS011;2975;50.956;6.962;2022-12-20T08:49:15;9.00;;;3.00;;
5898;SDS011;2975;50.956;6.962;2022-12-20T08:51:41;5.27;;;2.93;;
5898;SDS011;2975;50.956;6.962;2022-12-20T08:54:06;4.80;;;2.70;;
5898;SDS011;2975;50.956;6.962;2022-12-20T08:56:32;5.57;;;2.77;;
5898;SDS011;2975;50.956;6.962;2022-12-20T08:58:58;5.83;;;3.03;;
5898;SDS011;2975;50.956;6.962;2022-12-20T09:01:23;4.60;;;2.83;;
5898;SDS011;2975;50.956;6.962;2022-12-20T09:03:51;3.77;;;2.57;;
5898;SDS011;2975;50.956;6.962;2022-12-20T09:06:20;5.30;;;2.90;;
5898;SDS011;2975;50.956;6.962;2022-12-20T09:08:47;4.60;;;2.60;;
5898;SDS011;2975;50.956;6.962;2022-12-20T09:11:14;6.50;;;2.70;;
5898;SDS011;2975;50.956;6.962;2022-12-20T09:13:45;3.93;;;2.97;;
5898;SDS011;2975;50.956;6.962;2022-12-20T09:16:14;8.47;;;2.97;;
5898;SDS011;2975;50.956;6.962;2022-12-20T09:18:42;3.57;;;2.77;;
5898;SDS011;2975;50.956;6.962;2022-12-20T09:21:08;4.43;;;2.90;;
5898;SDS011;2975;50.956;6.962;2022-12-20T09:23:35;4.90;;;3.17;;
5898;SDS011;2975;50.956;6.962;2022-12-20T09:26:02;5.43;;;3.10;;
5898;SDS011;2975;50.956;6.962;2022-12-20T09:28:28;6.23;;;2.93;;
5898;SDS011;2975;50.956;6.962;2022-12-20T09:31:02;3.47;;;2.77;;
5898;SDS011;2975;50.956;6.962;2022-12-20T09:33:29;8.90;;;2.77;;
5898;SDS011;2975;50.956;6.962;2022-12-20T09:35:57;4.70;;;2.63;;
5898;SDS011;2975;50.956;6.962;2022-12-20T09:38:23;6.03;;;3.00;;
5898;SDS011;2975;50.956;6.962;2022-12-20T09:40:52;4.17;;;2.73;;
5898;SDS011;2975;50.956;6.962;2022-12-20T09:43:20;6.93;;;2.50;;
5898;SDS011;2975;50.956;6.962;2022-12-20T09:45:48;5.17;;;2.67;;
5898;SDS011;2975;50.956;6.962;2022-12-20T09:48:19;3.40;;;2.50;;
5898;SDS011;2975;50.956;6.962;2022-12-20T09:59:03;6.20;;;3.03;;
5898;SDS011;2975;50.956;6.962;2022-12-20T10:01:36;9.67;;;2.93;;
5898;SDS011;2975;50.956;6.962;2022-12-20T10:04:04;5.40;;;3.10;;
5898;SDS011;2975;50.956;6.962;2022-12-20T10:06:38;4.13;;;2.90;;
5898;SDS011;2975;50.956;6.962;2022-12-20T10:23:08;5.83;;;2.73;;
5898;SDS011;2975;50.956;6.962;2022-12-20T10:25:38;5.10;;;2.73;;
5898;SDS011;2975;50.956;6.962;2022-12-20T10:28:10;3.90;;;2.37;;
5898;SDS011;2975;50.956;6.962;2022-12-20T10:30:37;4.50;;;2.53;;
5898;SDS011;2975;50.956;6.962;2022-12-20T10:33:03;3.57;;;2.10;;
5898;SDS011;2975;50.956;6.962;2022-12-20T10:35:29;5.43;;;2.83;;
5898;SDS011;2975;50.956;6.962;2022-12-20T10:38:08;5.03;;;2.40;;
5898;SDS011;2975;50.956;6.962;2022-12-20T10:43:05;3.93;;;2.10;;
5898;SDS011;2975;50.956;6.962;2022-12-20T10:45:56;4.17;;;2.17;;
5898;SDS011;2975;50.956;6.962;2022-12-20T10:48:31;4.03;;;2.47;;
5898;SDS011;2975;50.956;6.962;2022-12-20T10:53:33;5.57;;;2.20;;
5898;SDS011;2975;50.956;6.962;2022-12-20T10:56:15;4.33;;;2.07;;
5898;SDS011;2975;50.956;6.962;2022-12-20T11:01:32;3.73;;;2.03;;
5898;SDS011;2975;50.956;6.962;2022-12-20T11:04:01;7.47;;;2.40;;
5898;SDS011;2975;50.956;6.962;2022-12-20T11:06:38;4.23;;;2.00;;
5898;SDS011;2975;50.956;6.962;2022-12-20T11:09:24;2.53;;;2.10;;
5898;SDS011;2975;50.956;6.962;2022-12-20T11:14:28;4.77;;;2.40;;
5898;SDS011;2975;50.956;6.962;2022-12-20T11:16:56;2.77;;;1.97;;
5898;SDS011;2975;50.956;6.962;2022-12-20T11:30:08;6.37;;;2.40;;
5898;SDS011;2975;50.956;6.962;2022-12-20T11:49:12;3.87;;;2.60;;
5898;SDS011;2975;50.956;6.962;2022-12-20T11:54:11;4.17;;;2.40;;
5898;SDS011;2975;50.956;6.962;2022-12-20T11:56:39;3.40;;;2.20;;
5898;SDS011;2975;50.956;6.962;2022-12-20T12:02:04;3.23;;;2.30;;
5898;SDS011;2975;50.956;6.962;2022-12-20T12:04:49;4.97;;;2.23;;
5898;SDS011;2975;50.956;6.962;2022-12-20T12:07:24;3.63;;;2.40;;
5898;SDS011;2975;50.956;6.962;2022-12-20T12:12:44;4.70;;;2.33;;
5898;SDS011;2975;50.956;6.962;2022-12-20T12:20:39;6.77;;;2.40;;
5898;SDS011;2975;50.956;6.962;2022-12-20T12:23:18;2.43;;;1.97;;
5898;SDS011;2975;50.956;6.962;2022-12-20T12:26:04;4.80;;;2.43;;
5898;SDS011;2975;50.956;6.962;2022-12-20T12:28:34;7.70;;;3.50;;
5898;SDS011;2975;50.956;6.962;2022-12-20T12:31:05;3.47;;;2.27;;
5898;SDS011;2975;50.956;6.962;2022-12-20T12:33:57;5.20;;;2.40;;
5898;SDS011;2975;50.956;6.962;2022-12-20T12:39:54;4.40;;;2.30;;
5898;SDS011;2975;50.956;6.962;2022-12-20T12:43:16;6.07;;;2.30;;
5898;SDS011;2975;50.956;6.962;2022-12-20T12:45:42;6.37;;;3.63;;
5898;SDS011;2975;50.956;6.962;2022-12-20T12:50:52;6.33;;;2.90;;
5898;SDS011;2975;50.956;6.962;2022-12-20T12:53:24;4.67;;;2.30;;
5898;SDS011;2975;50.956;6.962;2022-12-20T12:56:00;5.63;;;2.70;;
5898;SDS011;2975;50.956;6.962;2022-12-20T13:04:27;5.53;;;2.70;;
5898;SDS011;2975;50.956;6.962;2022-12-20T13:07:40;6.17;;;2.73;;
5898;SDS011;2975;50.956;6.962;2022-12-20T13:12:46;5.70;;;2.83;;
5898;SDS011;2975;50.956;6.962;2022-12-20T13:17:45;3.90;;;2.23;;
5898;SDS011;2975;50.956;6.962;2022-12-20T13:20:25;6.90;;;3.20;;
5898;SDS011;2975;50.956;6.962;2022-12-20T13:23:11;4.60;;;2.83;;
5898;SDS011;2975;50.956;6.962;2022-12-20T13:43:50;7.40;;;3.63;;
5898;SDS011;2975;50.956;6.962;2022-12-20T13:46:24;8.07;;;3.13;;
5898;SDS011;2975;50.956;6.962;2022-12-20T13:49:02;10.07;;;3.83;;
5898;SDS011;2975;50.956;6.962;2022-12-20T13:51:29;6.23;;;3.30;;
5898;SDS011;2975;50.956;6.962;2022-12-20T13:58:56;7.57;;;3.47;;
5898;SDS011;2975;50.956;6.962;2022-12-20T14:01:28;10.23;;;3.73;;
5898;SDS011;2975;50.956;6.962;2022-12-20T14:03:55;9.57;;;3.90;;
5898;SDS011;2975;50.956;6.962;2022-12-20T14:06:21;11.03;;;3.90;;
5898;SDS011;2975;50.956;6.962;2022-12-20T14:08:49;9.33;;;3.67;;
5898;SDS011;2975;50.956;6.962;2022-12-20T14:11:21;8.07;;;3.30;;
5898;SDS011;2975;50.956;6.962;2022-12-20T14:13:51;6.50;;;3.77;;
5898;SDS011;2975;50.956;6.962;2022-12-20T14:16:19;10.03;;;3.80;;
5898;SDS011;2975;50.956;6.962;2022-12-20T14:18:47;5.97;;;3.73;;
5898;SDS011;2975;50.956;6.962;2022-12-20T14:21:19;8.97;;;3.53;;
5898;SDS011;2975;50.956;6.962;2022-12-20T14:23:46;9.10;;;3.50;;
5898;SDS011;2975;50.956;6.962;2022-12-20T14:26:15;6.70;;;3.50;;
5898;SDS011;2975;50.956;6.962;2022-12-20T14:29:01;8.50;;;3.37;;
5898;SDS011;2975;50.956;6.962;2022-12-20T14:31:37;8.03;;;3.40;;
5898;SDS011;2975;50.956;6.962;2022-12-20T14:36:36;9.17;;;3.53;;
5898;SDS011;2975;50.956;6.962;2022-12-20T14:39:27;5.87;;;2.80;;
5898;SDS011;2975;50.956;6.962;2022-12-20T14:41:55;6.90;;;3.70;;
5898;SDS011;2975;50.956;6.962;2022-12-20T14:44:26;6.63;;;3.23;;
5898;SDS011;2975;50.956;6.962;2022-12-20T14:47:03;9.83;;;2.80;;
5898;SDS011;2975;50.956;6.962;2022-12-20T14:49:40;8.30;;;3.60;;
5898;SDS011;2975;50.956;6.962;2022-12-20T14:52:14;10.50;;;4.35;;
5898;SDS011;2975;50.956;6.962;2022-12-20T14:54:45;10.43;;;4.17;;
5898;SDS011;2975;50.956;6.962;2022-12-20T14:57:19;8.13;;;3.20;;
5898;SDS011;2975;50.956;6.962;2022-12-20T15:08:08;6.17;;;3.33;;
5898;SDS011;2975;50.956;6.962;2022-12-20T15:10:49;7.37;;;3.50;;
5898;SDS011;2975;50.956;6.962;2022-12-20T15:13:19;7.83;;;3.37;;
5898;SDS011;2975;50.956;6.962;2022-12-20T15:16:00;5.27;;;3.57;;
5898;SDS011;2975;50.956;6.962;2022-12-20T15:18:28;4.50;;;2.90;;
5898;SDS011;2975;50.956;6.962;2022-12-20T15:20:57;4.33;;;2.90;;
5898;SDS011;2975;50.956;6.962;2022-12-20T15:23:46;4.67;;;2.90;;
5898;SDS011;2975;50.956;6.962;2022-12-20T15:26:17;6.67;;;3.50;;
5898;SDS011;2975;50.956;6.962;2022-12-20T15:28:44;6.07;;;3.17;;
5898;SDS011;2975;50.956;6.962;2022-12-20T15:31:14;7.57;;;2.87;;
5898;SDS011;2975;50.956;6.962;2022-12-20T15:33:43;4.00;;;2.47;;
5898;SDS011;2975;50.956;6.962;2022-12-20T15:36:20;5.47;;;2.50;;
5898;SDS011;2975;50.956;6.962;2022-12-20T15:38:47;5.10;;;2.47;;
5898;SDS011;2975;50.956;6.962;2022-12-20T15:41:23;5.53;;;2.63;;
5898;SDS011;2975;50.956;6.962;2022-12-20T15:43:59;10.03;;;3.00;;
5898;SDS011;2975;50.956;6.962;2022-12-20T15:46:29;6.87;;;2.33;;
5898;SDS011;2975;50.956;6.962;2022-12-20T15:48:55;6.67;;;2.40;;
5898;SDS011;2975;50.956;6.962;2022-12-20T15:53:56;5.40;;;2.50;;
5898;SDS011;2975;50.956;6.962;2022-12-20T15:56:23;7.97;;;3.03;;
5898;SDS011;2975;50.956;6.962;2022-12-20T15:58:50;6.90;;;2.50;;
5898;SDS011;2975;50.956;6.962;2022-12-20T16:01:19;7.10;;;2.70;;
5898;SDS011;2975;50.956;6.962;2022-12-20T16:04:13;6.37;;;2.80;;
5898;SDS011;2975;50.956;6.962;2022-12-20T16:06:44;8.40;;;3.13;;
5898;SDS011;2975;50.956;6.962;2022-12-20T16:09:11;4.20;;;2.73;;
5898;SDS011;2975;50.956;6.962;2022-12-20T16:11:37;6.87;;;3.40;;
5898;SDS011;2975;50.956;6.962;2022-12-20T16:14:03;8.17;;;2.60;;
5898;SDS011;2975;50.956;6.962;2022-12-20T16:16:31;8.07;;;3.00;;
5898;SDS011;2975;50.956;6.962;2022-12-20T16:18:59;5.40;;;2.90;;
5898;SDS011;2975;50.956;6.962;2022-12-20T16:21:26;4.83;;;2.80;;
5898;SDS011;2975;50.956;6.962;2022-12-20T16:23:55;8.87;;;3.40;;
5898;SDS011;2975;50.956;6.962;2022-12-20T16:26:22;7.37;;;3.13;;
5898;SDS011;2975;50.956;6.962;2022-12-20T16:28:50;6.57;;;3.00;;
5898;SDS011;2975;50.956;6.962;2022-12-20T16:31:30;5.10;;;2.80;;
5898;SDS011;2975;50.956;6.962;2022-12-20T16:34:00;10.83;;;5.03;;
5898;SDS011;2975;50.956;6.962;2022-12-20T16:36:28;9.47;;;5.10;;
5898;SDS011;2975;50.956;6.962;2022-12-20T16:38:54;5.87;;;3.57;;
5898;SDS011;2975;50.956;6.962;2022-12-20T16:41:21;7.10;;;3.30;;
5898;SDS011;2975;50.956;6.962;2022-12-20T16:43:49;10.57;;;3.60;;
5898;SDS011;2975;50.956;6.962;2022-12-20T16:46:16;7.00;;;3.83;;
5898;SDS011;2975;50.956;6.962;2022-12-20T16:48:43;11.23;;;3.73;;
5898;SDS011;2975;50.956;6.962;2022-12-20T16:53:48;5.20;;;3.17;;
5898;SDS011;2975;50.956;6.962;2022-12-20T16:56:21;8.07;;;4.43;;
5898;SDS011;2975;50.956;6.962;2022-12-20T16:58:46;4.80;;;3.43;;
5898;SDS011;2975;50.956;6.962;2022-12-20T17:01:15;6.20;;;3.90;;
5898;SDS011;2975;50.956;6.962;2022-12-20T17:03:47;4.90;;;2.93;;
5898;SDS011;2975;50.956;6.962;2022-12-20T17:06:14;8.17;;;3.70;;
5898;SDS011;2975;50.956;6.962;2022-12-20T17:08:41;6.90;;;3.53;;
5898;SDS011;2975;50.956;6.962;2022-12-20T17:11:14;8.80;;;3.30;;
5898;SDS011;2975;50.956;6.962;2022-12-20T17:13:43;3.40;;;2.67;;
5898;SDS011;2975;50.956;6.962;2022-12-20T17:16:11;3.87;;;2.77;;
5898;SDS011;2975;50.956;6.962;2022-12-20T17:18:41;4.73;;;2.30;;
5898;SDS011;2975;50.956;6.962;2022-12-20T17:21:14;5.10;;;2.50;;
5898;SDS011;2975;50.956;6.962;2022-12-20T17:23:45;3.97;;;2.67;;
5898;SDS011;2975;50.956;6.962;2022-12-20T17:26:12;4.93;;;2.97;;
5898;SDS011;2975;50.956;6.962;2022-12-20T17:28:40;6.90;;;2.50;;
5898;SDS011;2975;50.956;6.962;2022-12-20T17:33:50;7.23;;;3.00;;
5898;SDS011;2975;50.956;6.962;2022-12-20T17:36:16;4.00;;;2.70;;
5898;SDS011;2975;50.956;6.962;2022-12-20T17:38:42;4.87;;;2.73;;
5898;SDS011;2975;50.956;6.962;2022-12-20T17:41:12;5.67;;;2.40;;
5898;SDS011;2975;50.956;6.962;2022-12-20T17:43:46;4.13;;;2.60;;
5898;SDS011;2975;50.956;6.962;2022-12-20T17:46:12;8.43;;;4.13;;
5898;SDS011;2975;50.956;6.962;2022-12-20T17:48:38;6.90;;;4.07;;
5898;SDS011;2975;50.956;6.962;2022-12-20T17:51:08;5.73;;;3.00;;
5898;SDS011;2975;50.956;6.962;2022-12-20T17:53:39;6.90;;;3.30;;
5898;SDS011;2975;50.956;6.962;2022-12-20T17:56:08;9.87;;;4.30;;
5898;SDS011;2975;50.956;6.962;2022-12-20T17:58:38;6.63;;;3.67;;
5898;SDS011;2975;50.956;6.962;2022-12-20T18:01:04;8.13;;;4.07;;